createdAt,value
2023-04-15T00:00:33.579Z,1068.00
2023-04-15T00:01:33.584Z,1073.00
2023-04-15T00:02:33.748Z,1081.00
2023-04-15T00:03:33.722Z,1057.00
2023-04-15T00:04:33.712Z,1062.00
2023-04-15T00:05:33.559Z,1072.00
2023-04-15T00:06:33.539Z,1057.00
2023-04-15T00:07:33.577Z,1068.00
2023-04-15T00:08:33.558Z,1051.00
2023-04-15T00:09:33.602Z,1070.00
2023-04-15T00:10:33.510Z,1052.00
2023-04-15T00:11:33.548Z,1044.00
2023-04-15T00:12:33.550Z,1051.00
2023-04-15T00:13:33.566Z,1051.00
2023-04-15T00:14:33.625Z,1059.00
2023-04-15T00:15:33.620Z,1050.00
2023-04-15T00:16:33.648Z,1047.00
2023-04-15T00:17:33.698Z,1048.00
2023-04-15T00:18:33.700Z,1046.00
2023-04-15T00:19:33.732Z,1050.00
2023-04-15T00:20:33.725Z,1031.00
2023-04-15T00:21:33.772Z,1047.00
2023-04-15T00:22:33.772Z,1040.00
2023-04-15T00:23:33.810Z,1033.00
2023-04-15T00:24:33.871Z,1020.00
2023-04-15T00:25:33.872Z,1036.00
2023-04-15T00:26:33.895Z,1031.00
2023-04-15T00:27:33.908Z,1031.00
2023-04-15T00:28:33.907Z,1042.00
2023-04-15T00:29:33.963Z,1025.00
2023-04-15T00:30:33.983Z,1034.00
2023-04-15T00:31:34.010Z,1024.00
2023-04-15T00:32:34.068Z,1015.00
2023-04-15T00:33:34.029Z,1029.00
2023-04-15T00:34:34.065Z,1013.00
2023-04-15T00:35:34.057Z,1029.00
2023-04-15T00:36:34.109Z,1014.00
2023-04-15T00:37:34.114Z,1015.00
2023-04-15T00:38:34.148Z,1025.00
2023-04-15T00:39:34.173Z,1014.00
2023-04-15T00:40:34.180Z,1016.00
2023-04-15T00:41:34.217Z,1015.00
2023-04-15T00:42:34.207Z,1004.00
2023-04-15T00:43:34.230Z,1004.00
2023-04-15T00:44:34.299Z,1004.00
2023-04-15T00:45:34.386Z,1008.00
2023-04-15T00:46:34.312Z,1013.00
2023-04-15T00:47:34.379Z,1008.00
2023-04-15T00:48:34.362Z,993.00
2023-04-15T00:49:34.387Z,1013.00
2023-04-15T00:50:34.381Z,1013.00
2023-04-15T00:51:34.426Z,1001.00
2023-04-15T00:52:34.458Z,1003.00
2023-04-15T00:53:34.452Z,985.00
2023-04-15T00:54:34.503Z,988.00
2023-04-15T00:55:34.528Z,998.00
2023-04-15T00:56:34.553Z,985.00
2023-04-15T00:57:34.549Z,1003.00
2023-04-15T00:58:34.616Z,992.00
2023-04-15T00:59:34.626Z,986.00
2023-04-15T01:00:34.675Z,991.00
2023-04-15T01:01:34.670Z,981.00
2023-04-15T01:02:34.775Z,996.00
2023-04-15T01:03:34.924Z,991.00
2023-04-15T01:04:34.792Z,983.00
2023-04-15T01:05:34.764Z,981.00
2023-04-15T01:06:34.752Z,976.00
2023-04-15T01:07:34.843Z,978.00
2023-04-15T01:08:34.822Z,973.00
2023-04-15T01:09:34.874Z,979.00
2023-04-15T01:10:34.903Z,976.00
2023-04-15T01:11:34.924Z,979.00
2023-04-15T01:12:34.926Z,966.00
2023-04-15T01:13:34.965Z,977.00
2023-04-15T01:14:34.986Z,952.00
2023-04-15T01:15:35.001Z,963.00
2023-04-15T01:16:35.040Z,966.00
2023-04-15T01:17:35.045Z,966.00
2023-04-15T01:18:35.055Z,953.00
2023-04-15T01:19:35.087Z,958.00
2023-04-15T01:20:35.078Z,973.00
2023-04-15T01:21:35.108Z,963.00
2023-04-15T01:22:35.141Z,967.00
2023-04-15T01:23:35.156Z,961.00
2023-04-15T01:24:35.190Z,950.00
2023-04-15T01:25:35.195Z,937.00
2023-04-15T01:26:35.219Z,960.00
2023-04-15T01:27:35.249Z,955.00
2023-04-15T01:28:35.239Z,954.00
2023-04-15T01:29:35.311Z,960.00
2023-04-15T01:30:35.333Z,944.00
2023-04-15T01:31:35.375Z,959.00
2023-04-15T01:32:35.400Z,965.00
2023-04-15T01:33:35.346Z,953.00
2023-04-15T01:34:35.940Z,955.00
2023-04-15T01:35:35.413Z,943.00
2023-04-15T01:36:35.420Z,951.00
2023-04-15T01:37:35.444Z,949.00
2023-04-15T01:38:35.516Z,931.00
2023-04-15T01:39:35.512Z,940.00
2023-04-15T01:40:35.543Z,943.00
2023-04-15T01:41:35.565Z,932.00
2023-04-15T01:42:35.600Z,952.00
2023-04-15T01:43:35.625Z,948.00
2023-04-15T01:44:35.641Z,927.00
2023-04-15T01:45:35.655Z,930.00
2023-04-15T01:46:35.707Z,942.00
2023-04-15T01:47:35.783Z,942.00
2023-04-15T01:48:35.730Z,940.00
2023-04-15T01:49:35.761Z,925.00
2023-04-15T01:50:35.794Z,931.00
2023-04-15T01:51:35.807Z,938.00
2023-04-15T01:52:35.812Z,925.00
2023-04-15T01:53:35.846Z,936.00
2023-04-15T01:54:35.882Z,927.00
2023-04-15T01:55:35.937Z,930.00
2023-04-15T01:56:35.916Z,925.00
2023-04-15T01:57:35.989Z,924.00
2023-04-15T01:58:35.999Z,908.00
2023-04-15T01:59:36.023Z,938.00
2023-04-15T02:00:36.051Z,914.00
2023-04-15T02:01:36.044Z,921.00
2023-04-15T02:02:36.173Z,911.00
2023-04-15T02:03:36.182Z,914.00
2023-04-15T02:04:36.116Z,915.00
2023-04-15T02:05:36.139Z,924.00
2023-04-15T02:06:36.182Z,915.00
2023-04-15T02:07:36.183Z,910.00
2023-04-15T02:08:36.204Z,914.00
2023-04-15T02:09:36.271Z,897.00
2023-04-15T02:10:36.301Z,918.00
2023-04-15T02:11:36.305Z,905.00
2023-04-15T02:12:36.331Z,914.00
2023-04-15T02:13:36.383Z,892.00
2023-04-15T02:14:36.361Z,905.00
2023-04-15T02:15:36.372Z,907.00
2023-04-15T02:16:36.448Z,907.00
2023-04-15T02:17:36.457Z,909.00
2023-04-15T02:18:36.451Z,898.00
2023-04-15T02:19:36.482Z,905.00
2023-04-15T02:20:36.519Z,906.00
2023-04-15T02:21:36.585Z,906.00
2023-04-15T02:22:36.578Z,894.00
2023-04-15T02:23:36.621Z,898.00
2023-04-15T02:24:36.654Z,897.00
2023-04-15T02:25:36.669Z,901.00
2023-04-15T02:26:36.680Z,892.00
2023-04-15T02:27:36.732Z,900.00
2023-04-15T02:28:36.753Z,894.00
2023-04-15T02:29:36.779Z,888.00
2023-04-15T02:30:36.828Z,891.00
2023-04-15T02:31:36.940Z,884.00
2023-04-15T02:32:36.888Z,889.00
2023-04-15T02:33:36.853Z,901.00
2023-04-15T02:34:36.901Z,886.00
2023-04-15T02:35:36.912Z,888.00
2023-04-15T02:36:36.934Z,878.00
2023-04-15T02:37:36.987Z,884.00
2023-04-15T02:38:37.005Z,885.00
2023-04-15T02:39:37.058Z,881.00
2023-04-15T02:40:37.068Z,870.00
2023-04-15T02:41:37.113Z,881.00
2023-04-15T02:42:37.099Z,868.00
2023-04-15T02:43:37.119Z,868.00
2023-04-15T02:44:37.195Z,882.00
2023-04-15T02:45:37.218Z,853.00
2023-04-15T02:46:37.218Z,876.00
2023-04-15T02:47:37.276Z,865.00
2023-04-15T02:48:37.274Z,883.00
2023-04-15T02:49:37.318Z,872.00
2023-04-15T02:50:37.342Z,874.00
2023-04-15T02:51:37.372Z,880.00
2023-04-15T02:52:37.439Z,863.00
2023-04-15T02:53:37.442Z,849.00
2023-04-15T02:54:37.501Z,862.00
2023-04-15T02:55:37.495Z,862.00
2023-04-15T02:56:37.503Z,868.00
2023-04-15T02:57:37.548Z,851.00
2023-04-15T02:58:37.580Z,857.00
2023-04-15T02:59:37.634Z,855.00
2023-04-15T03:00:37.656Z,848.00
2023-04-15T03:01:37.712Z,859.00
2023-04-15T03:02:37.777Z,848.00
2023-04-15T03:03:37.768Z,864.00
2023-04-15T03:04:37.717Z,858.00
2023-04-15T03:05:37.731Z,847.00
2023-04-15T03:06:37.774Z,856.00
2023-04-15T03:07:37.801Z,846.00
2023-04-15T03:08:37.851Z,852.00
2023-04-15T03:09:37.887Z,852.00
2023-04-15T03:10:37.910Z,840.00
2023-04-15T03:11:37.934Z,853.00
2023-04-15T03:12:37.962Z,846.00
2023-04-15T03:13:37.991Z,847.00
2023-04-15T03:14:38.013Z,840.00
2023-04-15T03:15:38.094Z,855.00
2023-04-15T03:16:38.078Z,840.00
2023-04-15T03:17:38.177Z,835.00
2023-04-15T03:18:38.114Z,829.00
2023-04-15T03:19:38.151Z,825.00
2023-04-15T03:20:38.231Z,852.00
2023-04-15T03:21:38.208Z,831.00
2023-04-15T03:22:38.237Z,836.00
2023-04-15T03:23:38.265Z,833.00
2023-04-15T03:24:38.304Z,849.00
2023-04-15T03:25:38.335Z,824.00
2023-04-15T03:26:38.351Z,838.00
2023-04-15T03:27:38.365Z,829.00
2023-04-15T03:28:38.393Z,831.00
2023-04-15T03:29:38.429Z,835.00
2023-04-15T03:30:38.435Z,831.00
2023-04-15T03:31:38.501Z,834.00
2023-04-15T03:32:38.627Z,827.00
2023-04-15T03:33:38.528Z,827.00
2023-04-15T03:34:38.564Z,823.00
2023-04-15T03:35:38.611Z,821.00
2023-04-15T03:36:38.624Z,819.00
2023-04-15T03:37:38.642Z,825.00
2023-04-15T03:38:38.667Z,817.00
2023-04-15T03:39:38.714Z,830.00
2023-04-15T03:40:38.717Z,818.00
2023-04-15T03:41:38.789Z,827.00
2023-04-15T03:42:38.799Z,816.00
2023-04-15T03:43:38.830Z,817.00
2023-04-15T03:44:38.893Z,808.00
2023-04-15T03:45:38.872Z,806.00
2023-04-15T03:46:38.971Z,815.00
2023-04-15T03:47:38.987Z,817.00
2023-04-15T03:48:38.995Z,806.00
2023-04-15T03:49:39.034Z,813.00
2023-04-15T03:50:39.044Z,810.00
2023-04-15T03:51:39.092Z,802.00
2023-04-15T03:52:39.125Z,779.00
2023-04-15T03:53:39.128Z,814.00
2023-04-15T03:54:39.161Z,814.00
2023-04-15T03:55:39.191Z,800.00
2023-04-15T03:56:39.192Z,803.00
2023-04-15T03:57:39.407Z,791.00
2023-04-15T03:58:39.282Z,802.00
2023-04-15T03:59:39.346Z,792.00
2023-04-15T04:00:39.344Z,809.00
2023-04-15T04:01:39.404Z,783.00
2023-04-15T04:02:39.477Z,797.00
2023-04-15T04:03:39.580Z,781.00
2023-04-15T04:04:39.571Z,809.00
2023-04-15T04:05:39.554Z,782.00
2023-04-15T04:06:39.640Z,805.00
2023-04-15T04:07:39.675Z,769.00
2023-04-15T04:08:39.761Z,791.00
2023-04-15T04:09:39.823Z,791.00
2023-04-15T04:10:39.880Z,791.00
2023-04-15T04:11:39.957Z,779.00
2023-04-15T04:12:40.038Z,786.00
2023-04-15T04:13:40.047Z,774.00
2023-04-15T04:14:40.105Z,779.00
2023-04-15T04:15:40.166Z,773.00
2023-04-15T04:16:40.184Z,789.00
2023-04-15T04:17:40.281Z,775.00
2023-04-15T04:18:40.269Z,776.00
2023-04-15T04:19:40.332Z,787.00
2023-04-15T04:20:40.384Z,778.00
2023-04-15T04:21:40.428Z,785.00
2023-04-15T04:22:40.533Z,784.00
2023-04-15T04:23:40.561Z,759.00
2023-04-15T04:24:40.615Z,781.00
2023-04-15T04:25:40.644Z,787.00
2023-04-15T04:26:40.712Z,778.00
2023-04-15T04:27:40.803Z,774.00
2023-04-15T04:28:40.847Z,783.00
2023-04-15T04:29:40.924Z,769.00
2023-04-15T04:30:40.971Z,767.00
2023-04-15T04:31:41.048Z,767.00
2023-04-15T04:32:41.101Z,770.00
2023-04-15T04:33:41.116Z,757.00
2023-04-15T04:34:41.189Z,764.00
2023-04-15T04:35:41.270Z,755.00
2023-04-15T04:36:41.343Z,761.00
2023-04-15T04:37:41.376Z,747.00
2023-04-15T04:38:41.436Z,755.00
2023-04-15T04:39:41.509Z,760.00
2023-04-15T04:40:41.553Z,766.00
2023-04-15T04:41:41.615Z,763.00
2023-04-15T04:42:41.689Z,755.00
2023-04-15T04:43:41.766Z,758.00
2023-04-15T04:44:41.791Z,752.00
2023-04-15T04:45:41.861Z,758.00
2023-04-15T04:46:41.910Z,754.00
2023-04-15T04:47:41.992Z,747.00
2023-04-15T04:48:42.023Z,750.00
2023-04-15T04:49:42.110Z,743.00
2023-04-15T04:50:42.095Z,748.00
2023-04-15T04:51:42.133Z,747.00
2023-04-15T04:52:42.160Z,755.00
2023-04-15T04:53:42.204Z,737.00
2023-04-15T04:54:42.247Z,745.00
2023-04-15T04:55:42.298Z,739.00
2023-04-15T04:56:42.359Z,743.00
2023-04-15T04:57:42.366Z,740.00
2023-04-15T04:58:42.401Z,742.00
2023-04-15T04:59:42.442Z,740.00
2023-04-15T05:00:42.485Z,735.00
2023-04-15T05:01:42.604Z,726.00
2023-04-15T05:02:42.598Z,731.00
2023-04-15T05:03:42.644Z,723.00
2023-04-15T05:04:42.634Z,722.00
2023-04-15T05:05:42.645Z,722.00
2023-04-15T05:06:42.679Z,723.00
2023-04-15T05:07:42.698Z,726.00
2023-04-15T05:08:42.763Z,716.00
2023-04-15T05:09:42.779Z,714.00
2023-04-15T05:10:42.812Z,720.00
2023-04-15T05:11:42.903Z,719.00
2023-04-15T05:12:42.861Z,715.00
2023-04-15T05:13:42.919Z,705.00
2023-04-15T05:14:42.949Z,712.00
2023-04-15T05:15:43.065Z,720.00
2023-04-15T05:16:43.050Z,706.00
2023-04-15T05:17:43.127Z,715.00
2023-04-15T05:18:43.112Z,710.00
2023-04-15T05:19:43.120Z,695.00
2023-04-15T05:20:43.161Z,712.00
2023-04-15T05:21:43.212Z,705.00
2023-04-15T05:22:43.217Z,689.00
2023-04-15T05:23:43.277Z,715.00
2023-04-15T05:24:43.321Z,684.00
2023-04-15T05:25:43.333Z,712.00
2023-04-15T05:26:43.337Z,697.00
2023-04-15T05:27:43.381Z,714.00
2023-04-15T05:28:43.431Z,703.00
2023-04-15T05:29:43.457Z,685.00
2023-04-15T05:30:43.508Z,696.00
2023-04-15T05:31:43.563Z,688.00
2023-04-15T05:32:43.628Z,692.00
2023-04-15T05:33:43.583Z,696.00
2023-04-15T05:34:43.648Z,696.00
2023-04-15T05:35:43.692Z,690.00
2023-04-15T05:36:43.689Z,694.00
2023-04-15T05:37:43.722Z,685.00
2023-04-15T05:38:43.723Z,692.00
2023-04-15T05:39:43.788Z,692.00
2023-04-15T05:40:43.845Z,701.00
2023-04-15T05:41:43.825Z,691.00
2023-04-15T05:42:43.915Z,689.00
2023-04-15T05:43:43.910Z,694.00
2023-04-15T05:44:43.970Z,687.00
2023-04-15T05:45:43.960Z,697.00
2023-04-15T05:46:44.069Z,693.00
2023-04-15T05:47:44.068Z,696.00
2023-04-15T05:48:44.092Z,689.00
2023-04-15T05:49:44.111Z,698.00
2023-04-15T05:50:44.140Z,680.00
2023-04-15T05:51:44.181Z,691.00
2023-04-15T05:52:44.208Z,686.00
2023-04-15T05:53:44.198Z,679.00
2023-04-15T05:54:44.241Z,683.00
2023-04-15T05:55:44.295Z,685.00
2023-04-15T05:56:44.326Z,678.00
2023-04-15T05:57:44.340Z,669.00
2023-04-15T05:58:44.375Z,677.00
2023-04-15T05:59:44.420Z,686.00
2023-04-15T06:00:44.479Z,677.00
2023-04-15T06:01:44.494Z,675.00
2023-04-15T06:02:44.628Z,677.00
2023-04-15T06:03:44.597Z,678.00
2023-04-15T06:04:44.660Z,670.00
2023-04-15T06:05:44.590Z,677.00
2023-04-15T06:06:44.604Z,673.00
2023-04-15T06:07:46.678Z,684.00
2023-04-15T06:08:44.638Z,686.00
2023-04-15T06:09:44.655Z,669.00
2023-04-15T06:10:44.609Z,669.00
2023-04-15T06:11:44.641Z,665.00
2023-04-15T06:12:44.580Z,675.00
2023-04-15T06:13:44.586Z,680.00
2023-04-15T06:14:44.585Z,672.00
2023-04-15T06:15:44.581Z,665.00
2023-04-15T06:16:44.631Z,666.00
2023-04-15T06:17:44.602Z,667.00
2023-04-15T06:18:44.580Z,664.00
2023-04-15T06:19:44.641Z,664.00
2023-04-15T06:20:44.554Z,668.00
2023-04-15T06:21:44.540Z,673.00
2023-04-15T06:22:44.524Z,669.00
2023-04-15T06:23:44.523Z,662.00
2023-04-15T06:24:44.548Z,674.00
2023-04-15T06:25:44.529Z,665.00
2023-04-15T06:26:44.512Z,662.00
2023-04-15T06:27:44.524Z,662.00
2023-04-15T06:28:44.522Z,665.00
2023-04-15T06:29:44.485Z,664.00
2023-04-15T06:30:44.508Z,661.00
2023-04-15T06:31:44.539Z,659.00
2023-04-15T06:32:44.476Z,664.00
2023-04-15T06:33:44.457Z,664.00
2023-04-15T06:34:44.470Z,662.00
2023-04-15T06:35:44.455Z,660.00
2023-04-15T06:36:44.468Z,659.00
2023-04-15T06:37:44.427Z,657.00
2023-04-15T06:38:44.433Z,663.00
2023-04-15T06:39:44.415Z,660.00
2023-04-15T06:40:44.409Z,660.00
2023-04-15T06:41:44.383Z,661.00
2023-04-15T06:42:44.384Z,658.00
2023-04-15T06:43:44.375Z,657.00
2023-04-15T06:44:44.397Z,663.00
2023-04-15T06:45:44.401Z,658.00
2023-04-15T06:46:44.432Z,657.00
2023-04-15T06:47:44.366Z,659.00
2023-04-15T06:48:44.388Z,657.00
2023-04-15T06:49:44.328Z,656.00
2023-04-15T06:50:44.315Z,651.00
2023-04-15T06:51:44.357Z,658.00
2023-04-15T06:52:44.306Z,659.00
2023-04-15T06:53:44.294Z,656.00
2023-04-15T06:54:44.328Z,652.00
2023-04-15T06:55:44.270Z,653.00
2023-04-15T06:56:44.285Z,658.00
2023-04-15T06:57:44.281Z,655.00
2023-04-15T06:58:44.290Z,654.00
2023-04-15T06:59:44.250Z,656.00
2023-04-15T07:00:44.282Z,656.00
2023-04-15T07:01:44.251Z,653.00
2023-04-15T07:02:44.352Z,651.00
2023-04-15T07:03:44.293Z,653.00
2023-04-15T07:04:44.338Z,649.00
2023-04-15T07:05:44.353Z,650.00
2023-04-15T07:06:44.388Z,650.00
2023-04-15T07:07:44.420Z,647.00
2023-04-15T07:08:44.424Z,648.00
2023-04-15T07:09:44.473Z,646.00
2023-04-15T07:10:44.465Z,652.00
2023-04-15T07:11:44.506Z,643.00
2023-04-15T07:12:44.540Z,647.00
2023-04-15T07:13:44.527Z,643.00
2023-04-15T07:14:44.628Z,642.00
2023-04-15T07:15:44.619Z,647.00
2023-04-15T07:16:44.667Z,646.00
2023-04-15T07:17:44.755Z,649.00
2023-04-15T07:18:44.688Z,643.00
2023-04-15T07:19:44.733Z,639.00
2023-04-15T07:20:44.784Z,647.00
2023-04-15T07:21:44.808Z,645.00
2023-04-15T07:22:44.820Z,642.00
2023-04-15T07:23:44.849Z,641.00
2023-04-15T07:24:44.885Z,640.00
2023-04-15T07:25:44.917Z,641.00
2023-04-15T07:26:44.932Z,645.00
2023-04-15T07:27:44.937Z,644.00
2023-04-15T07:28:44.965Z,643.00
2023-04-15T07:29:45.032Z,640.00
2023-04-15T07:30:45.093Z,642.00
2023-04-15T07:31:45.095Z,640.00
2023-04-15T07:32:45.129Z,644.00
2023-04-15T07:33:45.147Z,642.00
2023-04-15T07:34:45.151Z,638.00
2023-04-15T07:35:45.193Z,643.00
2023-04-15T07:36:45.192Z,639.00
2023-04-15T07:37:45.244Z,645.00
2023-04-15T07:38:45.273Z,644.00
2023-04-15T07:39:45.269Z,643.00
2023-04-15T07:40:45.324Z,645.00
2023-04-15T07:41:45.322Z,635.00
2023-04-15T07:42:45.378Z,639.00
2023-04-15T07:43:45.425Z,639.00
2023-04-15T07:44:45.452Z,641.00
2023-04-15T07:45:45.481Z,644.00
2023-04-15T07:46:45.484Z,643.00
2023-04-15T07:47:45.562Z,642.00
2023-04-15T07:48:45.534Z,640.00
2023-04-15T07:49:45.586Z,638.00
2023-04-15T07:50:45.583Z,641.00
2023-04-15T07:51:45.649Z,637.00
2023-04-15T07:52:45.685Z,640.00
2023-04-15T07:53:45.699Z,645.00
2023-04-15T07:54:45.736Z,642.00
2023-04-15T07:55:45.751Z,640.00
2023-04-15T07:56:45.773Z,646.00
2023-04-15T07:57:45.804Z,639.00
2023-04-15T07:58:45.826Z,638.00
2023-04-15T07:59:45.873Z,639.00
2023-04-15T08:00:45.899Z,640.00
2023-04-15T08:01:46.037Z,639.00
2023-04-15T08:02:46.106Z,636.00
2023-04-15T08:03:46.098Z,639.00
2023-04-15T08:04:46.263Z,642.00
2023-04-15T08:05:46.018Z,640.00
2023-04-15T08:06:46.027Z,638.00
2023-04-15T08:07:46.092Z,643.00
2023-04-15T08:08:46.082Z,645.00
2023-04-15T08:09:46.117Z,641.00
2023-04-15T08:10:46.152Z,638.00
2023-04-15T08:11:46.173Z,642.00
2023-04-15T08:12:46.235Z,631.00
2023-04-15T08:13:46.236Z,638.00
2023-04-15T08:14:46.290Z,642.00
2023-04-15T08:15:46.328Z,637.00
2023-04-15T08:16:46.330Z,642.00
2023-04-15T08:17:46.347Z,637.00
2023-04-15T08:18:46.378Z,637.00
2023-04-15T08:19:46.383Z,634.00
2023-04-15T08:20:46.412Z,637.00
2023-04-15T08:21:46.423Z,639.00
2023-04-15T08:22:46.484Z,638.00
2023-04-15T08:23:46.497Z,641.00
2023-04-15T08:24:46.502Z,637.00
2023-04-15T08:25:46.525Z,632.00
2023-04-15T08:26:46.544Z,631.00
2023-04-15T08:27:46.583Z,634.00
2023-04-15T08:28:46.583Z,639.00
2023-04-15T08:29:46.662Z,637.00
2023-04-15T08:30:46.659Z,637.00
2023-04-15T08:31:46.710Z,631.00
2023-04-15T08:32:46.704Z,636.00
2023-04-15T08:33:46.678Z,636.00
2023-04-15T08:34:47.311Z,631.00
2023-04-15T08:35:46.730Z,634.00
2023-04-15T08:36:46.716Z,628.00
2023-04-15T08:37:46.775Z,632.00
2023-04-15T08:38:46.768Z,624.00
2023-04-15T08:39:46.820Z,628.00
2023-04-15T08:40:46.846Z,624.00
2023-04-15T08:41:46.846Z,629.00
2023-04-15T08:42:46.853Z,633.00
2023-04-15T08:43:46.859Z,632.00
2023-04-15T08:44:46.864Z,623.00
2023-04-15T08:45:46.887Z,625.00
2023-04-15T08:46:46.955Z,633.00
2023-04-15T08:47:46.973Z,627.00
2023-04-15T08:48:46.981Z,628.00
2023-04-15T08:49:46.989Z,633.00
2023-04-15T08:50:46.979Z,627.00
2023-04-15T08:51:47.009Z,624.00
2023-04-15T08:52:47.022Z,621.00
2023-04-15T08:53:47.065Z,623.00
2023-04-15T08:54:47.071Z,622.00
2023-04-15T08:55:47.096Z,622.00
2023-04-15T08:56:47.111Z,620.00
2023-04-15T08:57:47.148Z,620.00
2023-04-15T08:58:47.172Z,623.00
2023-04-15T08:59:47.183Z,620.00
2023-04-15T09:00:47.224Z,626.00
2023-04-15T09:01:47.229Z,623.00
2023-04-15T09:02:47.308Z,622.00
2023-04-15T09:03:47.431Z,619.00
2023-04-15T09:04:47.266Z,615.00
2023-04-15T09:05:47.308Z,621.00
2023-04-15T09:06:47.320Z,624.00
2023-04-15T09:07:47.400Z,621.00
2023-04-15T09:08:47.354Z,624.00
2023-04-15T09:09:47.390Z,624.00
2023-04-15T09:10:47.382Z,614.00
2023-04-15T09:11:47.453Z,619.00
2023-04-15T09:12:47.555Z,609.00
2023-04-15T09:13:47.510Z,616.00
2023-04-15T09:14:47.514Z,620.00
2023-04-15T09:15:47.507Z,612.00
2023-04-15T09:16:49.278Z,611.00
2023-04-15T09:17:47.515Z,615.00
2023-04-15T09:18:47.486Z,619.00
2023-04-15T09:19:47.500Z,614.00
2023-04-15T09:20:47.540Z,617.00
2023-04-15T09:21:47.489Z,611.00
2023-04-15T09:22:47.463Z,610.00
2023-04-15T09:23:47.476Z,615.00
2023-04-15T09:24:47.449Z,611.00
2023-04-15T09:25:47.441Z,618.00
2023-04-15T09:26:47.453Z,606.00
2023-04-15T09:27:47.438Z,616.00
2023-04-15T09:28:47.432Z,607.00
2023-04-15T09:29:47.417Z,613.00
2023-04-15T09:30:48.659Z,618.00
2023-04-15T09:31:47.420Z,618.00
2023-04-15T09:32:47.463Z,614.00
2023-04-15T09:33:47.374Z,613.00
2023-04-15T09:34:47.382Z,605.00
2023-04-15T09:35:47.379Z,619.00
2023-04-15T09:36:49.143Z,611.00
2023-04-15T09:37:47.342Z,608.00
2023-04-15T09:38:47.351Z,611.00
2023-04-15T09:39:47.344Z,613.00
2023-04-15T09:40:47.346Z,605.00
2023-04-15T09:41:47.334Z,613.00
2023-04-15T09:42:48.719Z,611.00
2023-04-15T09:43:47.349Z,611.00
2023-04-15T09:44:47.327Z,612.00
2023-04-15T09:45:47.320Z,612.00
2023-04-15T09:46:47.300Z,612.00
2023-04-15T09:47:47.325Z,612.00
2023-04-15T09:48:47.287Z,608.00
2023-04-15T09:49:47.322Z,613.00
2023-04-15T09:50:47.288Z,610.00
2023-04-15T09:52:01.425Z,608.00
2023-04-15T09:52:48.288Z,609.00
2023-04-15T09:53:47.242Z,610.00
2023-04-15T09:54:47.243Z,609.00
2023-04-15T09:55:47.221Z,610.00
2023-04-15T09:56:47.224Z,612.00
2023-04-15T09:57:47.269Z,607.00
2023-04-15T09:58:47.222Z,605.00
2023-04-15T09:59:47.207Z,605.00
2023-04-15T10:00:47.184Z,607.00
2023-04-15T10:01:47.396Z,605.00
2023-04-15T10:02:47.348Z,610.00
2023-04-15T10:03:47.243Z,605.00
2023-04-15T10:04:47.154Z,606.00
2023-04-15T10:05:47.161Z,605.00
2023-04-15T10:06:47.173Z,605.00
2023-04-15T10:07:47.153Z,609.00
2023-04-15T10:08:47.106Z,602.00
2023-04-15T10:09:47.107Z,610.00
2023-04-15T10:10:47.110Z,605.00
2023-04-15T10:11:47.099Z,603.00
2023-04-15T10:12:47.115Z,603.00
2023-04-15T10:13:47.108Z,603.00
2023-04-15T10:14:47.087Z,600.00
2023-04-15T10:15:47.096Z,597.00
2023-04-15T10:16:47.061Z,604.00
2023-04-15T10:17:47.109Z,607.00
2023-04-15T10:18:47.094Z,598.00
2023-04-15T10:19:47.078Z,599.00
2023-04-15T10:20:47.080Z,595.00
2023-04-15T10:21:47.092Z,600.00
2023-04-15T10:22:47.095Z,595.00
2023-04-15T10:23:47.111Z,600.00
2023-04-15T10:24:47.121Z,599.00
2023-04-15T10:25:47.124Z,600.00
2023-04-15T10:26:47.090Z,595.00
2023-04-15T10:27:47.104Z,601.00
2023-04-15T10:28:47.179Z,598.00
2023-04-15T10:29:47.130Z,595.00
2023-04-15T10:30:47.136Z,598.00
2023-04-15T10:31:47.220Z,594.00
2023-04-15T10:32:47.229Z,602.00
2023-04-15T10:33:47.167Z,587.00
2023-04-15T10:34:47.147Z,596.00
2023-04-15T10:35:47.187Z,598.00
2023-04-15T10:36:47.155Z,594.00
2023-04-15T10:37:47.157Z,597.00
2023-04-15T10:38:47.231Z,596.00
2023-04-15T10:39:47.209Z,599.00
2023-04-15T10:40:47.211Z,592.00
2023-04-15T10:41:47.222Z,596.00
2023-04-15T10:42:47.215Z,592.00
2023-04-15T10:43:47.201Z,600.00
2023-04-15T10:44:47.190Z,598.00
2023-04-15T10:45:47.234Z,595.00
2023-04-15T10:46:47.270Z,596.00
2023-04-15T10:47:47.278Z,591.00
2023-04-15T10:48:47.247Z,593.00
2023-04-15T10:49:47.226Z,594.00
2023-04-15T10:50:47.239Z,591.00
2023-04-15T10:51:47.225Z,596.00
2023-04-15T10:52:47.238Z,589.00
2023-04-15T10:53:47.273Z,597.00
2023-04-15T10:54:47.245Z,588.00
2023-04-15T10:55:47.242Z,591.00
2023-04-15T10:56:47.298Z,594.00
2023-04-15T10:57:47.296Z,596.00
2023-04-15T10:58:47.313Z,591.00
2023-04-15T10:59:47.296Z,599.00
2023-04-15T11:00:47.274Z,589.00
2023-04-15T11:01:47.359Z,590.00
2023-04-15T11:02:47.475Z,589.00
2023-04-15T11:03:47.475Z,592.00
2023-04-15T11:04:47.423Z,594.00
2023-04-15T11:05:47.336Z,586.00
2023-04-15T11:06:47.331Z,592.00
2023-04-15T11:07:47.315Z,592.00
2023-04-15T11:08:47.374Z,590.00
2023-04-15T11:09:47.381Z,590.00
2023-04-15T11:10:47.369Z,592.00
2023-04-15T11:11:47.354Z,586.00
2023-04-15T11:12:47.387Z,595.00
2023-04-15T11:13:47.365Z,588.00
2023-04-15T11:14:47.348Z,588.00
2023-04-15T11:15:47.370Z,586.00
2023-04-15T11:16:47.451Z,590.00
2023-04-15T11:17:47.405Z,589.00
2023-04-15T11:18:47.418Z,587.00
2023-04-15T11:19:47.371Z,592.00
2023-04-15T11:20:47.394Z,587.00
2023-04-15T11:21:47.386Z,591.00
2023-04-15T11:22:47.374Z,591.00
2023-04-15T11:23:47.378Z,588.00
2023-04-15T11:24:47.411Z,581.00
2023-04-15T11:25:47.385Z,586.00
2023-04-15T11:26:47.416Z,589.00
2023-04-15T11:27:47.384Z,592.00
2023-04-15T11:28:47.408Z,586.00
2023-04-15T11:29:47.422Z,587.00
2023-04-15T11:30:47.408Z,583.00
2023-04-15T11:31:47.454Z,585.00
2023-04-15T11:32:47.485Z,593.00
2023-04-15T11:33:47.413Z,591.00
2023-04-15T11:34:47.440Z,588.00
2023-04-15T11:35:47.394Z,586.00
2023-04-15T11:36:47.453Z,589.00
2023-04-15T11:37:47.425Z,589.00
2023-04-15T11:38:47.516Z,588.00
2023-04-15T11:39:47.433Z,590.00
2023-04-15T11:40:47.501Z,587.00
2023-04-15T11:41:47.433Z,583.00
2023-04-15T11:42:49.915Z,587.00
2023-04-15T11:43:47.439Z,595.00
2023-04-15T11:44:47.418Z,589.00
2023-04-15T11:45:47.468Z,596.00
2023-04-15T11:46:47.395Z,587.00
2023-04-15T11:47:47.495Z,584.00
2023-04-15T11:48:47.506Z,592.00
2023-04-15T11:49:47.377Z,589.00
2023-04-15T11:50:47.383Z,591.00
2023-04-15T11:51:47.346Z,591.00
2023-04-15T11:52:47.351Z,592.00
2023-04-15T11:53:47.372Z,595.00
2023-04-15T11:54:47.346Z,588.00
2023-04-15T11:55:47.342Z,590.00
2023-04-15T11:56:47.357Z,594.00
2023-04-15T11:57:47.358Z,588.00
2023-04-15T11:58:47.319Z,589.00
2023-04-15T11:59:47.331Z,589.00
2023-04-15T12:00:47.312Z,589.00
2023-04-15T12:01:47.337Z,590.00
2023-04-15T12:02:47.356Z,586.00
2023-04-15T12:03:47.525Z,583.00
2023-04-15T12:04:47.357Z,593.00
2023-04-15T12:05:47.271Z,587.00
2023-04-15T12:06:47.282Z,584.00
2023-04-15T12:07:47.257Z,580.00
2023-04-15T12:08:47.259Z,585.00
2023-04-15T12:09:47.243Z,585.00
2023-04-15T12:10:47.233Z,586.00
2023-04-15T12:11:47.302Z,584.00
2023-04-15T12:12:47.251Z,588.00
2023-04-15T12:13:47.220Z,588.00
2023-04-15T12:14:47.201Z,588.00
2023-04-15T12:15:47.225Z,587.00
2023-04-15T12:16:49.022Z,585.00
2023-04-15T12:17:51.571Z,585.00
2023-04-15T12:18:48.219Z,586.00
2023-04-15T12:19:47.157Z,588.00
2023-04-15T12:20:47.170Z,589.00
2023-04-15T12:21:47.150Z,588.00
2023-04-15T12:22:47.160Z,589.00
2023-04-15T12:23:47.152Z,590.00
2023-04-15T12:24:47.134Z,592.00
2023-04-15T12:25:47.144Z,581.00
2023-04-15T12:26:47.131Z,592.00